マドリード/バラハス の空港の天気 - METARとTAF

マドリード・バラハス国際空港 ( LEMD / MAD ) - スペイン マドリード
飛行場実況気象(Metar)
観測時間06/17 21:30 CEST (06/17 19:30 UTC)
風向・風速南南西 4m/s
視程10km以上
天気現象
なし
気温31℃
湿度14%
気圧1013hPa
METARLEMD 171930Z 21008KT CAVOK 31/00 Q1013 NOSIG
過去の天気等 Google飛行場航空写真 Wunderground天気予報

過去48時間のMETAR

飛行場予報(TAF)
発表時間: 6/17 19:00 CEST (6/17 17:00 UTC)
予報対象時間: 17日20時 CEST ~ 19日2時 CEST
風向・風速南南西 4m/s
視程10km以上
なし
17日20時 CEST ~ 17日21時 CEST に一時的に
風向・風速南南西 6m/s
17日20時 CEST ~ 17日21時 CEST に 確率 40% で一時的に
風向・風速南西 4m/s 瞬間風速 9m/s
17日21時 CEST ~ 17日24時 CEST に一時的に
風向・風速西 4m/s
18日9時 CEST ~ 18日10時 CEST に徐々に
風向・風速南西 6m/s
18日14時 CEST ~ 18日22時 CEST に一時的に
風向・風速南西 8m/s 瞬間風速 14m/s
TAF LEMD 171700Z 1718/1824 20008KT CAVOK TX32/1816Z TN16/1805Z
TEMPO 1718/1719 21012KT
PROB40 TEMPO 1718/1719 22008G18KT
TEMPO 1719/1722 28007KT
BECMG 1807/1808 22012KT
TEMPO 1812/1820 22015G28KT